Time;durP1;ratioP1;P1;durP2;ratioP2;P2;SDS_P1;SDS_P2;PMS_P1;PMS_P2;Temp;Humidity;BMP_temperature;BMP_pressure;BME280_temperature;BME280_humidity;BME280_pressure;Samples;Min_cycle;Max_cycle;Signal;HPM_P1;HPM_P2
2023/03/26 00:02:03;;;;;;;4.77;2.00;;;6.00;99.90;;;;;;5095518;28;20678;-73
2023/03/26 00:04:32;;;;;;;5.20;2.17;;;6.00;99.90;;;;;;5095465;28;20238;-73
2023/03/26 00:06:59;;;;;;;5.67;1.90;;;6.00;99.90;;;;;;5095680;28;20196;-72
2023/03/26 00:09:25;;;;;;;6.27;2.40;;;5.90;99.90;;;;;;5094837;28;20237;-73
2023/03/26 00:11:52;;;;;;;4.97;2.07;;;5.90;99.90;;;;;;5095378;28;20282;-73
2023/03/26 00:14:18;;;;;;;8.57;2.33;;;5.80;99.90;;;;;;5095417;28;20250;-73
2023/03/26 00:16:46;;;;;;;6.73;2.00;;;5.80;99.90;;;;;;5095281;28;20201;-73
2023/03/26 00:19:14;;;;;;;6.93;2.00;;;5.80;99.90;;;;;;5094950;28;20557;-73
2023/03/26 00:21:41;;;;;;;9.73;1.87;;;5.80;99.90;;;;;;5095480;28;20555;-73
2023/03/26 00:24:10;;;;;;;6.07;1.97;;;5.80;99.90;;;;;;5095348;28;20200;-74
2023/03/26 00:26:37;;;;;;;6.43;2.10;;;5.80;99.90;;;;;;5095293;28;20727;-73
2023/03/26 00:29:06;;;;;;;8.03;2.40;;;5.80;99.90;;;;;;5095039;28;20287;-73
2023/03/26 00:31:33;;;;;;;3.87;1.70;;;5.80;99.90;;;;;;5094832;28;20311;-72
2023/03/26 00:34:02;;;;;;;6.90;2.27;;;5.80;99.90;;;;;;5094976;28;20252;-73
2023/03/26 00:36:30;;;;;;;6.37;2.13;;;5.80;99.90;;;;;;5095015;28;20208;-72
2023/03/26 00:38:57;;;;;;;6.87;1.73;;;5.80;99.90;;;;;;5095019;28;20196;-73
2023/03/26 00:41:29;;;;;;;6.23;2.20;;;5.80;99.90;;;;;;5094823;28;20580;-73
2023/03/26 00:43:58;;;;;;;3.70;1.77;;;5.80;99.90;;;;;;5094807;28;20193;-73
2023/03/26 00:46:27;;;;;;;5.17;2.03;;;5.90;99.90;;;;;;5095031;28;20233;-73
2023/03/26 00:48:57;;;;;;;6.07;1.77;;;5.90;99.90;;;;;;5094884;28;20223;-73
2023/03/26 00:51:24;;;;;;;5.37;1.77;;;6.00;99.90;;;;;;5094677;28;20631;-73
2023/03/26 00:53:52;;;;;;;10.27;2.30;;;6.00;99.90;;;;;;5094543;28;20201;-72
2023/03/26 00:56:19;;;;;;;6.17;2.27;;;5.90;99.90;;;;;;5094513;28;20228;-73
2023/03/26 00:58:46;;;;;;;6.40;2.00;;;5.90;99.90;;;;;;5094476;28;20246;-73
2023/03/26 01:01:15;;;;;;;5.57;1.80;;;5.90;99.90;;;;;;5094582;28;20204;-73
2023/03/26 01:03:44;;;;;;;10.10;2.37;;;5.80;99.90;;;;;;5094512;28;20204;-73
2023/03/26 01:06:14;;;;;;;10.50;2.10;;;5.80;99.90;;;;;;5094487;28;20243;-73
2023/03/26 01:08:44;;;;;;;8.00;2.03;;;5.70;99.90;;;;;;5094461;28;20196;-73
2023/03/26 01:11:15;;;;;;;9.23;2.10;;;5.80;99.90;;;;;;5094126;28;20672;-73
2023/03/26 01:13:47;;;;;;;7.77;2.40;;;5.80;99.90;;;;;;5094484;28;20568;-73
2023/03/26 01:16:24;;;;;;;5.93;2.20;;;5.80;99.90;;;;;;5094239;28;20228;-73
2023/03/26 01:18:52;;;;;;;5.67;2.10;;;5.80;99.90;;;;;;5094167;28;20284;-73
2023/03/26 01:21:22;;;;;;;5.50;2.10;;;5.90;99.90;;;;;;5093103;28;20219;-73
2023/03/26 01:23:58;;;;;;;5.07;2.03;;;5.90;99.90;;;;;;5094221;28;20202;-74
2023/03/26 01:26:41;;;;;;;8.27;2.40;;;5.90;99.90;;;;;;5094221;28;20196;-74
2023/03/26 01:29:17;;;;;;;8.90;2.50;;;6.00;99.90;;;;;;5094100;28;20235;-73
2023/03/26 01:31:52;;;;;;;3.33;1.83;;;6.00;99.90;;;;;;5093802;28;20272;-74
2023/03/26 01:34:29;;;;;;;7.23;2.40;;;6.10;99.90;;;;;;5093653;28;20263;-74
2023/03/26 01:37:06;;;;;;;7.43;2.37;;;6.10;99.90;;;;;;5093908;28;20245;-74
2023/03/26 01:39:40;;;;;;;6.57;1.90;;;6.10;99.90;;;;;;5093828;28;20200;-74
2023/03/26 01:42:11;;;;;;;6.70;2.23;;;6.10;99.90;;;;;;5093746;28;20223;-74
2023/03/26 01:44:43;;;;;;;5.13;2.20;;;6.10;99.90;;;;;;5093643;28;20224;-74
2023/03/26 01:47:11;;;;;;;8.70;2.53;;;6.20;99.90;;;;;;5093628;28;20203;-74
2023/03/26 01:49:38;;;;;;;5.07;2.20;;;6.30;99.90;;;;;;5093777;28;20238;-74
2023/03/26 01:52:06;;;;;;;8.70;2.43;;;6.40;99.90;;;;;;5093358;28;20706;-73
2023/03/26 01:54:36;;;;;;;5.10;1.60;;;6.40;99.90;;;;;;5093555;28;20623;-74
2023/03/26 01:57:13;;;;;;;9.47;2.30;;;6.40;99.90;;;;;;5093426;28;20192;-75
2023/03/26 01:59:52;;;;;;;9.57;2.23;;;6.20;99.90;;;;;;5093587;28;20228;-75
2023/03/26 02:02:26;;;;;;;9.93;2.97;;;6.10;99.90;;;;;;5093604;28;20257;-74
2023/03/26 02:04:57;;;;;;;8.43;2.47;;;6.00;99.90;;;;;;5093339;28;20600;-73
2023/03/26 02:07:27;;;;;;;8.13;2.20;;;6.00;99.90;;;;;;5093304;28;20251;-74
2023/03/26 02:10:00;;;;;;;7.30;2.07;;;5.90;99.90;;;;;;5093380;28;20204;-74
2023/03/26 02:12:28;;;;;;;10.07;2.10;;;5.90;99.90;;;;;;5093295;28;20255;-74
2023/03/26 02:14:55;;;;;;;8.97;2.40;;;5.90;99.90;;;;;;5093169;28;20258;-74
2023/03/26 02:17:23;;;;;;;5.37;2.20;;;6.00;99.90;;;;;;5093200;28;20227;-73
2023/03/26 02:19:50;;;;;;;8.40;2.10;;;6.00;99.90;;;;;;5093042;28;20200;-73
2023/03/26 02:22:17;;;;;;;7.07;2.47;;;6.10;99.90;;;;;;5093244;28;20236;-73
2023/03/26 02:24:44;;;;;;;9.13;2.73;;;6.10;99.90;;;;;;5093248;28;20249;-74
2023/03/26 02:27:12;;;;;;;6.97;2.50;;;6.10;99.90;;;;;;5093128;28;20287;-73
2023/03/26 02:29:39;;;;;;;7.43;2.17;;;6.10;99.90;;;;;;5093078;28;20253;-73
2023/03/26 02:32:07;;;;;;;4.03;2.00;;;6.10;99.90;;;;;;5092738;28;20256;-73
2023/03/26 02:34:35;;;;;;;6.33;2.60;;;6.00;99.90;;;;;;5092841;28;20221;-74
2023/03/26 02:37:02;;;;;;;5.93;2.27;;;5.90;99.90;;;;;;5093190;28;20279;-74
2023/03/26 02:39:28;;;;;;;7.10;2.43;;;5.80;99.90;;;;;;5093078;28;20269;-74
2023/03/26 02:41:55;;;;;;;5.03;2.23;;;5.80;99.90;;;;;;5092859;28;20675;-74
2023/03/26 02:44:23;;;;;;;7.27;2.60;;;5.70;99.90;;;;;;5092983;28;20234;-74
2023/03/26 02:46:49;;;;;;;7.53;2.63;;;5.60;99.90;;;;;;5092782;28;20668;-73
2023/03/26 02:49:16;;;;;;;6.60;2.43;;;5.60;99.90;;;;;;5092679;28;20270;-73
2023/03/26 02:51:43;;;;;;;9.90;2.97;;;5.50;99.90;;;;;;5092637;28;20730;-74
2023/03/26 02:54:09;;;;;;;4.13;2.10;;;5.50;99.90;;;;;;5092877;28;20228;-74
2023/03/26 02:56:36;;;;;;;6.57;2.97;;;5.50;99.90;;;;;;5092863;28;20220;-74
2023/03/26 02:59:02;;;;;;;4.93;2.47;;;5.40;99.90;;;;;;5092835;28;20235;-74
2023/03/26 03:01:33;;;;;;;10.10;3.10;;;5.50;99.90;;;;;;5092656;28;20687;-74
2023/03/26 03:04:02;;;;;;;9.30;2.83;;;5.50;99.90;;;;;;5092941;28;20674;-74
2023/03/26 03:06:31;;;;;;;6.93;2.83;;;5.40;99.90;;;;;;5092813;28;20245;-74
2023/03/26 03:08:57;;;;;;;13.27;3.57;;;5.40;99.90;;;;;;5092713;28;20240;-74
2023/03/26 03:11:24;;;;;;;8.27;3.10;;;5.30;99.90;;;;;;5092704;28;20270;-73
2023/03/26 03:13:52;;;;;;;8.60;2.77;;;5.30;99.90;;;;;;5092637;28;20220;-74
2023/03/26 03:16:18;;;;;;;6.73;3.20;;;5.30;99.90;;;;;;5092506;28;20204;-74
2023/03/26 03:18:52;;;;;;;9.43;2.60;;;5.30;99.90;;;;;;5092750;28;20236;-74
2023/03/26 03:21:19;;;;;;;7.03;2.87;;;5.30;99.90;;;;;;5092566;28;20200;-74
2023/03/26 03:23:46;;;;;;;11.10;3.63;;;5.40;99.90;;;;;;5092598;28;20201;-74
2023/03/26 03:26:15;;;;;;;9.73;4.20;;;5.40;99.90;;;;;;5092486;28;20262;-73
2023/03/26 03:28:41;;;;;;;10.33;3.67;;;5.50;99.90;;;;;;5092275;28;20623;-74
2023/03/26 03:31:08;;;;;;;8.97;4.13;;;5.50;99.90;;;;;;5092630;28;20242;-74
2023/03/26 03:33:35;;;;;;;7.23;3.13;;;5.50;99.90;;;;;;5092112;28;20245;-74
2023/03/26 03:36:09;;;;;;;9.43;3.57;;;5.50;99.90;;;;;;5092508;28;20200;-74
2023/03/26 03:38:35;;;;;;;8.37;2.90;;;5.60;99.90;;;;;;5092477;28;20594;-74
2023/03/26 03:41:02;;;;;;;7.70;3.30;;;5.50;99.90;;;;;;5092279;28;20196;-73
2023/03/26 03:43:28;;;;;;;6.67;2.53;;;5.60;99.90;;;;;;5092668;28;20231;-73
2023/03/26 03:45:55;;;;;;;9.97;3.97;;;5.60;99.90;;;;;;5095962;28;20668;-74
2023/03/26 03:48:22;;;;;;;10.87;3.50;;;5.50;99.90;;;;;;5096020;28;20196;-74
2023/03/26 03:50:48;;;;;;;6.30;2.80;;;5.40;99.90;;;;;;5096018;28;20667;-74
2023/03/26 03:53:17;;;;;;;6.40;2.60;;;5.40;99.90;;;;;;5095679;28;20259;-74
2023/03/26 03:55:51;;;;;;;10.97;4.13;;;5.30;99.90;;;;;;5095614;28;20201;-73
2023/03/26 03:58:20;;;;;;;8.47;2.40;;;5.20;99.90;;;;;;5096042;28;20224;-74
2023/03/26 04:00:48;;;;;;;7.83;2.90;;;5.10;99.90;;;;;;5095851;28;20200;-74
2023/03/26 04:03:14;;;;;;;9.30;3.23;;;5.00;99.90;;;;;;5095727;28;20591;-74
2023/03/26 04:05:42;;;;;;;6.90;2.87;;;4.90;99.90;;;;;;5095749;28;20232;-74
2023/03/26 04:08:09;;;;;;;9.47;3.23;;;4.90;99.90;;;;;;5095416;28;20201;-74
2023/03/26 04:10:37;;;;;;;6.83;2.60;;;4.90;99.90;;;;;;5095678;28;20231;-75
2023/03/26 04:13:03;;;;;;;7.23;2.70;;;4.80;99.90;;;;;;5095502;28;20232;-74
2023/03/26 04:15:30;;;;;;;5.50;2.70;;;4.90;99.90;;;;;;5095363;28;20615;-74
2023/03/26 04:17:56;;;;;;;7.40;3.23;;;4.90;99.90;;;;;;5095481;28;20231;-74
2023/03/26 04:20:23;;;;;;;8.57;3.10;;;4.90;99.90;;;;;;5095381;28;20239;-74
2023/03/26 04:22:49;;;;;;;9.17;4.50;;;4.90;99.90;;;;;;5095194;28;20223;-74
2023/03/26 04:25:16;;;;;;;8.60;3.00;;;4.90;99.90;;;;;;5095357;28;20224;-74
2023/03/26 04:27:45;;;;;;;5.63;3.03;;;5.00;99.90;;;;;;5095339;28;20228;-74
2023/03/26 04:30:16;;;;;;;5.87;2.80;;;5.00;99.90;;;;;;5095232;28;20206;-74
2023/03/26 04:32:43;;;;;;;11.47;3.93;;;4.90;99.90;;;;;;5094851;28;20311;-74
2023/03/26 04:35:13;;;;;;;10.87;3.03;;;4.90;99.90;;;;;;5095059;28;20204;-74
2023/03/26 04:37:43;;;;;;;13.60;8.27;;;4.90;99.90;;;;;;5095253;28;20281;-74
2023/03/26 04:40:13;;;;;;;5.77;2.47;;;4.80;99.90;;;;;;5095127;28;20199;-75
2023/03/26 04:42:44;;;;;;;6.37;2.40;;;4.90;99.90;;;;;;5094994;28;20280;-74
2023/03/26 04:45:14;;;;;;;8.83;3.37;;;5.00;99.90;;;;;;5094980;28;20197;-74
2023/03/26 04:47:40;;;;;;;5.73;2.80;;;5.00;99.90;;;;;;5094714;28;20258;-74
2023/03/26 04:50:10;;;;;;;6.97;2.67;;;4.90;99.90;;;;;;5094598;28;20238;-74
2023/03/26 04:52:37;;;;;;;7.57;3.67;;;4.80;99.90;;;;;;5094629;28;20222;-74
2023/03/26 04:55:05;;;;;;;12.27;2.63;;;4.90;99.90;;;;;;5094613;28;20650;-75
2023/03/26 04:57:37;;;;;;;10.27;3.80;;;4.80;99.90;;;;;;5094632;28;20242;-74
2023/03/26 05:00:13;;;;;;;9.10;3.00;;;4.80;99.90;;;;;;5094595;28;20227;-74
2023/03/26 05:02:41;;;;;;;6.50;2.77;;;4.70;99.90;;;;;;5094746;28;20227;-74
2023/03/26 05:05:09;;;;;;;10.27;2.97;;;4.60;99.90;;;;;;5094642;28;20207;-76
2023/03/26 05:07:36;;;;;;;6.83;2.97;;;4.60;99.90;;;;;;5094521;28;20619;-74
2023/03/26 05:10:03;;;;;;;6.07;2.63;;;4.80;99.90;;;;;;5094456;28;20200;-74
2023/03/26 05:12:30;;;;;;;10.37;2.93;;;4.90;99.90;;;;;;5094351;28;20251;-74
2023/03/26 05:14:57;;;;;;;7.63;2.83;;;4.90;99.90;;;;;;5094153;28;20280;-74
2023/03/26 05:17:24;;;;;;;5.47;2.67;;;4.90;99.90;;;;;;5094070;28;20652;-74
2023/03/26 05:19:52;;;;;;;8.53;3.13;;;5.00;99.90;;;;;;5094112;28;20612;-74
2023/03/26 05:22:19;;;;;;;8.43;3.13;;;4.90;99.90;;;;;;5094215;28;20239;-74
2023/03/26 05:24:46;;;;;;;10.23;7.40;;;4.90;99.90;;;;;;5094089;28;20212;-74
2023/03/26 05:27:15;;;;;;;6.27;2.80;;;5.00;99.90;;;;;;5094080;28;20220;-73
2023/03/26 05:29:42;;;;;;;8.47;3.83;;;5.00;99.90;;;;;;5093877;28;20200;-74
2023/03/26 05:32:09;;;;;;;8.93;3.20;;;5.10;99.90;;;;;;5094081;28;20220;-74
2023/03/26 05:34:36;;;;;;;9.50;2.70;;;5.00;99.90;;;;;;5093671;28;20224;-74
2023/03/26 05:37:05;;;;;;;8.30;2.97;;;5.00;99.90;;;;;;5093850;28;20227;-74
2023/03/26 05:39:32;;;;;;;7.20;2.80;;;5.00;99.90;;;;;;5093848;28;20192;-73
2023/03/26 05:41:59;;;;;;;5.83;2.50;;;5.00;99.90;;;;;;5093701;28;20227;-74
2023/03/26 05:44:26;;;;;;;6.53;2.40;;;5.10;99.90;;;;;;5093634;28;20291;-75
2023/03/26 05:46:52;;;;;;;9.40;2.93;;;5.00;99.90;;;;;;5093770;28;20223;-74
2023/03/26 05:49:20;;;;;;;5.87;2.53;;;5.10;99.90;;;;;;5093570;28;20713;-75
2023/03/26 05:51:46;;;;;;;10.30;3.10;;;5.10;99.90;;;;;;5093632;28;20200;-73
2023/03/26 05:54:14;;;;;;;9.77;2.87;;;5.00;99.90;;;;;;5093382;28;20721;-73
2023/03/26 05:56:41;;;;;;;9.60;2.90;;;5.10;99.90;;;;;;5093504;28;20586;-73
2023/03/26 05:59:07;;;;;;;5.77;2.50;;;5.20;99.90;;;;;;5093766;28;20239;-73
2023/03/26 06:01:34;;;;;;;3.93;2.30;;;5.30;99.90;;;;;;5093399;28;20655;-75
2023/03/26 06:04:00;;;;;;;5.07;2.20;;;5.30;99.90;;;;;;5093569;28;20238;-74
2023/03/26 06:06:27;;;;;;;5.73;2.70;;;5.30;99.90;;;;;;5092918;28;20228;-74
2023/03/26 06:08:54;;;;;;;6.80;2.80;;;5.40;99.90;;;;;;5093410;28;20228;-74
2023/03/26 06:11:22;;;;;;;7.17;2.40;;;5.50;99.90;;;;;;5093233;28;20196;-74
2023/03/26 06:13:48;;;;;;;5.73;2.53;;;5.60;99.90;;;;;;5093217;28;20759;-74
2023/03/26 06:16:16;;;;;;;10.67;3.43;;;5.60;99.90;;;;;;5093320;28;20201;-74
2023/03/26 06:18:42;;;;;;;9.40;3.20;;;5.70;99.90;;;;;;5093235;28;20211;-74
2023/03/26 06:21:09;;;;;;;4.27;2.50;;;5.70;99.90;;;;;;5093130;28;20227;-74
2023/03/26 06:23:36;;;;;;;7.30;2.70;;;5.80;99.90;;;;;;5093034;28;20204;-73
2023/03/26 06:26:02;;;;;;;6.40;2.70;;;5.80;99.90;;;;;;5093333;28;20193;-74
2023/03/26 06:28:30;;;;;;;12.20;2.93;;;5.90;99.90;;;;;;5093286;28;20235;-74
2023/03/26 06:30:59;;;;;;;6.60;3.03;;;6.00;99.90;;;;;;5093155;28;20268;-74
2023/03/26 06:33:26;;;;;;;6.73;2.40;;;6.00;99.90;;;;;;5092705;28;20240;-74
2023/03/26 06:35:53;;;;;;;7.77;2.70;;;6.00;99.90;;;;;;5093013;28;20230;-74
2023/03/26 06:38:19;;;;;;;7.23;2.97;;;6.10;99.90;;;;;;5092738;28;20685;-74
2023/03/26 06:40:46;;;;;;;5.30;2.80;;;6.20;99.90;;;;;;5093041;28;20239;-74
2023/03/26 06:43:12;;;;;;;4.60;2.43;;;6.30;99.90;;;;;;5092835;28;20657;-72
2023/03/26 06:45:40;;;;;;;10.07;3.27;;;6.40;99.90;;;;;;5092962;28;20201;-73
2023/03/26 06:48:07;;;;;;;9.17;2.80;;;6.40;99.90;;;;;;5092753;28;20227;-73
2023/03/26 06:50:34;;;;;;;5.57;2.40;;;6.50;99.90;;;;;;5092732;28;20199;-73
2023/03/26 06:53:00;;;;;;;5.30;2.80;;;6.50;99.90;;;;;;5092659;28;20260;-73
2023/03/26 06:55:27;;;;;;;5.57;2.97;;;6.50;99.90;;;;;;5092961;28;20230;-74
2023/03/26 06:57:56;;;;;;;5.13;2.10;;;6.60;99.90;;;;;;5092813;28;20238;-74
2023/03/26 07:00:23;;;;;;;5.90;2.67;;;6.50;99.90;;;;;;5092823;28;20200;-74
2023/03/26 07:02:51;;;;;;;7.93;2.77;;;6.50;99.90;;;;;;5092646;28;20227;-72
2023/03/26 07:05:18;;;;;;;8.07;3.00;;;6.60;99.90;;;;;;5092455;28;20275;-73
2023/03/26 07:07:44;;;;;;;8.73;3.03;;;6.50;99.90;;;;;;5092687;28;20246;-73
2023/03/26 07:10:11;;;;;;;6.23;3.20;;;6.50;99.90;;;;;;5092580;28;20239;-73
2023/03/26 07:12:38;;;;;;;6.27;2.70;;;6.40;99.90;;;;;;5092565;28;20196;-73
2023/03/26 07:15:06;;;;;;;7.43;3.33;;;6.40;99.90;;;;;;5092513;28;20238;-73
2023/03/26 07:17:33;;;;;;;4.60;2.70;;;6.40;99.90;;;;;;5092469;28;20234;-74
2023/03/26 07:20:01;;;;;;;4.93;2.70;;;6.50;99.90;;;;;;5095088;28;20221;-73
2023/03/26 07:22:28;;;;;;;5.93;3.37;;;6.40;99.90;;;;;;5096580;28;20200;-73
2023/03/26 07:24:55;;;;;;;7.97;2.50;;;6.50;99.90;;;;;;5096585;28;20633;-73
2023/03/26 07:27:37;;;;;;;4.67;2.40;;;6.50;99.90;;;;;;5096426;28;20227;-73
2023/03/26 07:30:08;;;;;;;9.90;2.80;;;6.50;99.90;;;;;;5096293;28;20196;-74
2023/03/26 07:32:42;;;;;;;6.77;2.90;;;6.60;99.90;;;;;;5096358;28;20203;-73
2023/03/26 07:35:17;;;;;;;4.33;2.27;;;6.60;99.90;;;;;;5096351;28;20200;-73
2023/03/26 07:37:52;;;;;;;8.20;2.70;;;6.60;99.90;;;;;;5096241;28;20591;-72
2023/03/26 07:40:37;;;;;;;4.40;2.93;;;6.70;99.90;;;;;;5096186;28;20254;-73
2023/03/26 07:43:11;;;;;;;8.97;2.60;;;6.70;99.90;;;;;;5096271;28;20239;-73
2023/03/26 07:45:42;;;;;;;7.57;3.13;;;6.80;99.90;;;;;;5096090;28;20269;-74
2023/03/26 07:48:15;;;;;;;5.10;3.13;;;6.70;99.90;;;;;;5096033;28;20277;-74
2023/03/26 07:50:46;;;;;;;5.23;2.20;;;6.70;99.90;;;;;;5096013;28;20208;-74
2023/03/26 07:53:13;;;;;;;5.03;2.90;;;6.60;99.90;;;;;;5095715;28;20632;-74
2023/03/26 07:55:49;;;;;;;8.00;3.10;;;6.60;99.90;;;;;;5096171;28;20224;-75
2023/03/26 07:58:36;;;;;;;7.83;2.43;;;6.50;99.90;;;;;;5095734;28;20713;-75
2023/03/26 08:01:09;;;;;;;8.23;3.77;;;6.50;99.90;;;;;;5095929;28;20298;-76
2023/03/26 08:04:03;;;;;;;7.97;3.37;;;6.50;99.90;;;;;;5095605;28;20200;-76
2023/03/26 08:06:35;;;;;;;8.03;2.90;;;6.50;99.90;;;;;;5095813;28;20279;-76
2023/03/26 08:09:11;;;;;;;5.03;2.90;;;6.50;99.90;;;;;;5095757;28;20207;-76
2023/03/26 08:11:47;;;;;;;9.67;2.93;;;6.60;99.90;;;;;;5095481;28;20627;-75
2023/03/26 08:14:31;;;;;;;9.63;3.47;;;6.50;99.90;;;;;;5095284;28;20262;-74
2023/03/26 08:17:05;;;;;;;8.53;3.10;;;6.50;99.90;;;;;;5095203;28;20691;-75
2023/03/26 08:19:47;;;;;;;7.13;3.20;;;6.50;99.90;;;;;;5095526;28;20199;-75
2023/03/26 08:22:26;;;;;;;8.87;2.77;;;6.50;99.90;;;;;;5095248;28;20655;-74
2023/03/26 08:25:16;;;;;;;7.30;3.03;;;6.70;99.90;;;;;;5095393;28;20204;-74
2023/03/26 08:27:51;;;;;;;10.80;3.10;;;6.80;99.90;;;;;;5095232;28;20200;-74
2023/03/26 08:30:21;;;;;;;8.47;3.40;;;6.80;99.90;;;;;;5094877;28;20192;-74
2023/03/26 08:32:54;;;;;;;7.50;3.40;;;6.80;99.90;;;;;;5094622;28;20229;-74
2023/03/26 08:35:20;;;;;;;5.90;3.00;;;6.80;99.90;;;;;;5095288;28;20287;-74
2023/03/26 08:37:48;;;;;;;9.40;3.40;;;6.80;99.90;;;;;;5094977;28;20232;-73
2023/03/26 08:40:30;;;;;;;7.73;3.47;;;6.70;99.90;;;;;;5094935;28;20225;-73
2023/03/26 08:43:26;;;;;;;10.27;3.93;;;6.80;99.90;;;;;;5095031;28;20235;-73
2023/03/26 08:46:10;;;;;;;9.93;4.00;;;6.90;99.90;;;;;;5095062;28;20228;-73
2023/03/26 08:49:03;;;;;;;7.30;3.77;;;6.90;99.90;;;;;;5094933;28;20199;-73
2023/03/26 08:52:09;;;;;;;9.10;3.43;;;6.90;99.90;;;;;;5094811;28;20600;-73
2023/03/26 08:54:51;;;;;;;12.63;4.43;;;6.80;99.90;;;;;;5094565;28;20663;-73
2023/03/26 08:57:45;;;;;;;6.23;3.63;;;6.90;99.90;;;;;;5094619;28;20192;-74
2023/03/26 09:00:40;;;;;;;7.40;3.80;;;6.90;99.90;;;;;;5094948;28;20242;-74
2023/03/26 09:03:36;;;;;;;8.87;3.57;;;6.90;99.90;;;;;;5093828;28;20232;-74
2023/03/26 09:06:57;;;;;;;9.40;4.00;;;6.90;99.90;;;;;;5094359;28;20196;-73
2023/03/26 09:10:00;;;;;;;10.87;4.77;;;6.90;99.90;;;;;;4981939;28;20275;-73
2023/03/26 09:13:13;;;;;;;8.67;4.43;;;6.80;99.90;;;;;;4992553;28;20283;-74
2023/03/26 09:16:11;;;;;;;11.73;4.30;;;6.90;99.90;;;;;;5094296;28;20234;-74
2023/03/26 09:19:05;;;;;;;9.13;3.60;;;6.90;99.90;;;;;;5094107;28;20247;-74
2023/03/26 09:21:55;;;;;;;7.43;3.40;;;6.80;99.90;;;;;;5057513;28;20200;-75
2023/03/26 09:24:54;;;;;;;8.97;3.20;;;6.70;99.90;;;;;;5094044;28;20710;-74
2023/03/26 09:27:36;;;;;;;8.03;3.27;;;6.60;99.90;;;;;;5065230;28;20643;-74
2023/03/26 09:30:35;;;;;;;6.03;2.70;;;6.60;99.90;;;;;;5092506;28;20216;-74
2023/03/26 09:33:22;;;;;;;7.60;3.30;;;6.70;99.90;;;;;;5091674;28;20303;-74
2023/03/26 09:35:54;;;;;;;6.63;3.53;;;6.80;99.90;;;;;;5092014;28;20208;-74
2023/03/26 09:38:45;;;;;;;8.37;3.20;;;6.80;99.90;;;;;;5091743;28;20260;-74
2023/03/26 09:41:17;;;;;;;7.93;3.17;;;6.90;99.90;;;;;;5090940;28;20197;-73
2023/03/26 09:44:19;;;;;;;5.37;3.70;;;7.00;99.90;;;;;;5091641;28;20236;-74
2023/03/26 09:47:04;;;;;;;7.63;3.00;;;7.10;99.90;;;;;;5058526;28;20223;-75
2023/03/26 09:49:50;;;;;;;6.37;2.90;;;7.00;99.90;;;;;;5091238;28;20215;-73
2023/03/26 09:52:32;;;;;;;3.97;2.43;;;6.90;99.90;;;;;;5091009;28;20235;-74
2023/03/26 09:55:19;;;;;;;8.43;3.30;;;6.90;99.90;;;;;;5091416;28;20228;-74
2023/03/26 09:58:00;;;;;;;8.37;2.83;;;6.90;99.90;;;;;;5091371;28;20215;-75
2023/03/26 10:00:36;;;;;;;6.93;2.83;;;6.90;99.90;;;;;;5091314;28;20547;-76
2023/03/26 10:03:19;;;;;;;6.60;3.23;;;6.90;99.90;;;;;;5091759;28;20199;-76
2023/03/26 10:06:10;;;;;;;6.00;4.00;;;6.90;99.90;;;;;;5091400;28;20200;-75
2023/03/26 10:08:47;;;;;;;8.97;3.47;;;6.90;99.90;;;;;;5090802;28;20687;-74
2023/03/26 10:11:22;;;;;;;4.97;3.17;;;6.90;99.90;;;;;;5091102;28;20200;-75
2023/03/26 10:13:58;;;;;;;6.27;3.87;;;6.90;99.90;;;;;;5090791;28;20643;-75
2023/03/26 10:16:38;;;;;;;5.83;3.10;;;7.00;99.90;;;;;;5090586;28;20560;-74
2023/03/26 10:19:19;;;;;;;6.43;2.70;;;7.10;99.90;;;;;;5090919;28;20659;-75
2023/03/26 10:21:53;;;;;;;8.63;3.00;;;7.10;99.90;;;;;;5091201;28;20203;-76
2023/03/26 10:24:48;;;;;;;7.53;2.57;;;6.90;99.90;;;;;;5091000;28;20272;-77
2023/03/26 10:27:29;;;;;;;6.97;2.80;;;6.80;99.90;;;;;;5090516;28;20262;-75
2023/03/26 10:30:28;;;;;;;5.90;2.70;;;6.70;99.90;;;;;;5091171;28;20297;-75
2023/03/26 10:33:07;;;;;;;5.83;2.93;;;6.80;99.90;;;;;;5090724;28;20544;-76
2023/03/26 10:35:47;;;;;;;6.70;2.67;;;6.90;99.90;;;;;;5090669;28;20262;-76
2023/03/26 10:38:20;;;;;;;5.47;2.83;;;6.90;99.90;;;;;;5090907;28;20239;-75
2023/03/26 10:40:58;;;;;;;5.07;3.40;;;6.90;99.90;;;;;;5090472;28;20240;-75
2023/03/26 10:43:43;;;;;;;4.90;2.37;;;7.00;99.90;;;;;;5090608;28;20231;-75
2023/03/26 10:46:35;;;;;;;4.70;3.00;;;6.90;99.90;;;;;;5090485;28;20228;-73
2023/03/26 10:49:41;;;;;;;6.23;2.30;;;7.00;99.90;;;;;;5090319;28;20671;-74
2023/03/26 10:52:11;;;;;;;5.47;2.50;;;6.80;99.90;;;;;;5089965;28;20203;-73
2023/03/26 10:54:48;;;;;;;7.17;3.00;;;6.70;99.90;;;;;;5094126;28;20734;-74
2023/03/26 10:57:26;;;;;;;3.87;2.07;;;6.90;99.90;;;;;;5094229;28;20200;-74
2023/03/26 10:59:54;;;;;;;5.07;2.27;;;7.10;99.90;;;;;;5094514;28;20673;-74
2023/03/26 11:02:28;;;;;;;5.60;3.47;;;7.30;99.90;;;;;;5094726;28;20232;-79
2023/03/26 11:05:16;;;;;;;5.47;2.20;;;7.50;99.90;;;;;;5096559;28;20627;-75
2023/03/26 11:07:50;;;;;;;6.07;2.50;;;7.80;99.90;;;;;;5078306;28;20231;-80
2023/03/26 11:10:25;;;;;;;7.17;2.70;;;7.60;99.90;;;;;;5096724;28;20238;-79
2023/03/26 11:12:57;;;;;;;3.87;2.60;;;7.70;99.90;;;;;;5096670;28;20200;-74
2023/03/26 11:15:27;;;;;;;5.17;2.60;;;8.20;99.90;;;;;;5096474;28;20251;-74
2023/03/26 11:18:07;;;;;;;7.10;3.27;;;8.30;99.90;;;;;;5096744;28;20244;-71
2023/03/26 11:20:41;;;;;;;4.07;2.83;;;8.20;99.90;;;;;;5096532;28;20195;-76
2023/03/26 11:23:26;;;;;;;5.17;2.40;;;8.50;99.90;;;;;;5096495;28;20509;-75
2023/03/26 11:26:07;;;;;;;4.97;2.47;;;8.90;99.90;;;;;;5096483;28;20196;-76
2023/03/26 11:28:53;;;;;;;4.83;2.30;;;8.80;99.90;;;;;;5096501;28;20224;-76
2023/03/26 11:31:29;;;;;;;2.83;2.00;;;8.40;99.90;;;;;;5096362;28;20240;-77
2023/03/26 11:34:02;;;;;;;4.00;2.07;;;8.30;99.90;;;;;;5095936;28;20248;-76
2023/03/26 11:36:34;;;;;;;3.40;2.63;;;8.20;99.90;;;;;;5096216;28;20608;-75
2023/03/26 11:39:04;;;;;;;6.13;2.40;;;8.20;99.90;;;;;;5096270;28;20651;-75
2023/03/26 11:41:31;;;;;;;4.10;3.13;;;8.50;99.90;;;;;;5096209;28;20204;-75
2023/03/26 11:44:01;;;;;;;5.67;3.00;;;8.70;99.90;;;;;;5096045;28;20708;-77
2023/03/26 11:46:28;;;;;;;5.33;2.40;;;8.90;99.90;;;;;;5096035;28;20224;-75
2023/03/26 11:48:58;;;;;;;6.30;2.67;;;9.00;99.90;;;;;;5096088;28;20223;-76
2023/03/26 11:51:30;;;;;;;4.97;2.57;;;9.30;99.90;;;;;;5096287;28;20207;-80
2023/03/26 11:53:58;;;;;;;5.27;2.50;;;9.10;99.90;;;;;;5095833;28;20207;-76
2023/03/26 11:56:30;;;;;;;5.13;2.50;;;8.90;99.90;;;;;;5095718;28;20246;-75
2023/03/26 11:59:00;;;;;;;5.20;2.77;;;8.50;99.90;;;;;;5095679;28;20286;-76
2023/03/26 12:01:40;;;;;;;5.83;2.70;;;8.60;99.90;;;;;;5095960;28;20234;-76
2023/03/26 12:04:12;;;;;;;4.30;2.13;;;8.80;99.90;;;;;;5095446;28;20227;-76
2023/03/26 12:06:40;;;;;;;3.73;2.40;;;9.00;99.90;;;;;;5095528;28;20402;-76
2023/03/26 12:09:17;;;;;;;5.03;2.03;;;10.30;99.90;;;;;;5095598;28;20602;-76
2023/03/26 12:11:44;;;;;;;2.13;1.70;;;11.20;99.90;;;;;;5095488;28;20204;-76
2023/03/26 12:14:17;;;;;;;1.83;1.37;;;10.50;99.90;;;;;;5095752;28;20192;-79
2023/03/26 12:16:58;;;;;;;2.27;1.60;;;10.00;99.90;;;;;;5095629;28;20263;-76
2023/03/26 12:19:27;;;;;;;2.43;1.57;;;10.90;99.90;;;;;;5095264;28;20233;-75
2023/03/26 12:21:54;;;;;;;3.50;1.60;;;11.80;99.90;;;;;;5095368;28;20203;-75
2023/03/26 12:24:30;;;;;;;2.17;1.30;;;12.30;99.90;;;;;;5095491;28;20258;-74
2023/03/26 12:27:00;;;;;;;4.83;1.60;;;12.80;99.90;;;;;;5095211;28;20732;-75
2023/03/26 12:29:28;;;;;;;2.60;1.60;;;13.50;99.90;;;;;;5095288;28;20219;-74
2023/03/26 12:31:57;;;;;;;5.30;1.58;;;14.10;99.90;;;;;;5095159;28;20203;-74
2023/03/26 12:34:33;;;;;;;1.83;1.48;;;14.10;99.90;;;;;;5094799;28;20577;-74
2023/03/26 12:37:00;;;;;;;1.35;1.13;;;14.80;99.90;;;;;;5095065;28;20196;-75
2023/03/26 12:39:31;;;;;;;4.32;1.70;;;16.10;99.90;;;;;;5094996;28;20260;-74
2023/03/26 12:42:00;;;;;;;1.85;1.40;;;15.70;99.90;;;;;;5094988;28;20202;-75
2023/03/26 12:44:30;;;;;;;2.22;1.50;;;15.30;99.90;;;;;;5094816;28;20224;-73
2023/03/26 12:47:08;;;;;;;2.17;1.50;;;14.30;99.90;;;;;;5094888;28;20291;-73
2023/03/26 12:49:36;;;;;;;2.55;1.35;;;15.10;99.90;;;;;;5095007;28;20232;-74
2023/03/26 12:52:17;;;;;;;2.75;1.35;;;16.40;99.90;;;;;;5094896;28;20208;-74
2023/03/26 12:54:53;;;;;;;2.85;1.40;;;16.40;99.90;;;;;;5094714;28;20252;-74
2023/03/26 12:57:23;;;;;;;2.15;1.35;;;17.90;99.90;;;;;;5094531;28;20227;-74
2023/03/26 13:00:00;;;;;;;2.78;1.40;;;16.80;99.90;;;;;;5094778;28;20280;-74
2023/03/26 13:02:57;;;;;;;4.18;1.73;;;14.80;99.90;;;;;;5094597;28;20202;-74
2023/03/26 13:05:37;;;;;;;2.20;1.55;;;14.40;99.90;;;;;;5094364;28;20727;-74
2023/03/26 13:08:32;;;;;;;1.45;1.30;;;15.80;99.90;;;;;;5094477;28;20223;-74
2023/03/26 13:11:07;;;;;;;3.67;1.35;;;17.10;99.90;;;;;;5091293;28;20196;-74
2023/03/26 13:13:55;;;;;;;1.75;1.27;;;17.40;99.90;;;;;;5094310;28;20250;-74
2023/03/26 13:16:28;;;;;;;1.95;1.45;;;17.80;99.90;;;;;;5093353;28;20212;-75
2023/03/26 13:18:59;;;;;;;3.50;1.60;;;15.90;99.90;;;;;;5094412;28;20606;-74
2023/03/26 13:21:36;;;;;;;3.35;1.65;;;15.60;99.90;;;;;;5094198;28;20208;-74
2023/03/26 13:24:11;;;;;;;2.60;1.48;;;14.40;99.90;;;;;;5094084;28;20203;-74
2023/03/26 13:26:52;;;;;;;2.63;1.50;;;16.30;99.90;;;;;;5093868;28;20195;-74